ELR weather

Elelim Airport
Elelim-Papua Island, Papua, Indonesia

Public forecast

Using degrees Celsius for public forecast. Weather courtesy of forecast.io.

METAR (pilot weather report)

Report is more than 2 hours old.

Closest report is Sentani International Airport, 99.1 nm (183.6 km) NE. Retrieved 2019/07/17 16:00 UTC (2 hours ago):

WAJJ 171600Z 32002KT 9999 SCT013 24/20 Q1009 NOSIG

TAF (pilot weather forecast)

Forecast is more than 12 hours old.

Closest forecast is Sentani International Airport, 99.1 nm (183.6 km) NE. Retrieved 2013/03/11 12:00 UTC (6 years ago):

TAF WAJJ 111100Z 1112/1212 29006KT 5000 HZ SCT016 TEMPO 1113/1121 4000 RA FEW014CB BECMG 1200/1202 28012KT 9999 TEMPO 1207/1212 6000 RA FEW014CB